Time;durP1;ratioP1;P1;durP2;ratioP2;P2;SDS_P1;SDS_P2;PMS_P1;PMS_P2;Temp;Humidity;BMP_temperature;BMP_pressure;BME280_temperature;BME280_humidity;BME280_pressure;Samples;Min_cycle;Max_cycle;Signal;HPM_P1;HPM_P2
2022/09/19 00:00:22;;;;;;;;;;;;;;;;;;1037969;28;20373;-74
2022/09/19 00:00:52;;;;;;;;;;;;;;;;;;1037837;28;19918;-74
2022/09/19 00:01:22;;;;;;;;;;;;;;;;;;1037141;28;19978;-74
2022/09/19 00:01:53;;;;;;;;;;;;;;;;;;1038041;28;19956;-73
2022/09/19 00:02:23;;;;;;;;;;;;;;;;;;1038250;28;19913;-74
2022/09/19 00:02:54;;;;;;;;;;;;;;;;;;1038275;28;19917;-74
2022/09/19 00:03:24;;;;;;;;;;;;;;;;;;1037787;28;19922;-74
2022/09/19 00:03:55;;;;;;;;;;;;;;;;;;1037911;28;19914;-74
2022/09/19 00:04:25;;;;;;;;;;;;;;;;;;1038015;28;19967;-73
2022/09/19 00:04:55;;;;;;;;;;;;;;;;;;1038078;28;19913;-73
2022/09/19 00:05:25;;;;;;;;;;;;;;;;;;1037950;28;19920;-74
2022/09/19 00:05:56;;;;;;;;;;;;;;;;;;1033747;28;19913;-74
2022/09/19 00:06:27;;;;;;;;;;;;;;;;;;1038199;28;20356;-74
2022/09/19 00:06:57;;;;;;;;;;;;;;;;;;1037717;28;20011;-74
2022/09/19 00:07:27;;;;;;;;;;;;;;;;;;1037435;28;19913;-74
2022/09/19 00:07:58;;;;;;;;;;;;;;;;;;1037914;28;20301;-74
2022/09/19 00:08:28;;;;;;;;;;;;;;;;;;1037874;28;20015;-74
2022/09/19 00:08:58;;;;;;;;;;;;;;;;;;1033726;28;19924;-74
2022/09/19 00:09:28;;;;;;;;;;;;;;;;;;1033933;28;19921;-74
2022/09/19 00:09:59;;;;;;;;;;;;;;;;;;1039320;28;19913;-74
2022/09/19 00:10:29;;;;;;;;;;;;;;;;;;1038904;28;20511;-74
2022/09/19 00:10:59;;;;;;;;;;;;;;;;;;1038096;28;20004;-74
2022/09/19 00:11:30;;;;;;;;;;;;;;;;;;1038172;28;19913;-74
2022/09/19 00:12:01;;;;;;;;;;;;;;;;;;1038354;28;21427;-74
2022/09/19 00:12:31;;;;;;;;;;;;;;;;;;1037821;28;19917;-74
2022/09/19 00:13:01;;;;;;;;;;;;;;;;;;1038102;28;20377;-74
2022/09/19 00:13:32;;;;;;;;;;;;;;;;;;1037765;28;20395;-74
2022/09/19 00:14:03;;;;;;;;;;;;;;;;;;1037858;28;19917;-74
2022/09/19 00:14:33;;;;;;;;;;;;;;;;;;1037963;28;19964;-74
2022/09/19 00:15:04;;;;;;;;;;;;;;;;;;1038219;28;20385;-74
2022/09/19 00:15:34;;;;;;;;;;;;;;;;;;1041808;28;20396;-74
2022/09/19 00:16:04;;;;;;;;;;;;;;;;;;1038094;28;19920;-74
2022/09/19 00:16:35;;;;;;;;;;;;;;;;;;1038393;28;19921;-74
2022/09/19 00:17:07;;;;;;;;;;;;;;;;;;1038034;28;19918;-74
2022/09/19 00:17:37;;;;;;;;;;;;;;;;;;1038101;28;19963;-74
2022/09/19 00:18:07;;;;;;;;;;;;;;;;;;1038238;28;19964;-74
2022/09/19 00:18:37;;;;;;;;;;;;;;;;;;1038102;28;20274;-74
2022/09/19 00:19:08;;;;;;;;;;;;;;;;;;1037630;28;20303;-74
2022/09/19 00:19:38;;;;;;;;;;;;;;;;;;1038020;28;20316;-74
2022/09/19 00:20:08;;;;;;;;;;;;;;;;;;1036979;28;19927;-73
2022/09/19 00:20:39;;;;;;;;;;;;;;;;;;1037937;28;19921;-74
2022/09/19 00:21:09;;;;;;;;;;;;;;;;;;1037785;28;19927;-74
2022/09/19 00:21:39;;;;;;;;;;;;;;;;;;1037869;28;19971;-74
2022/09/19 00:22:09;;;;;;;;;;;;;;;;;;1037404;28;19922;-74
2022/09/19 00:24:45;;;;;;;;;;;;;;;;;;1038014;28;19916;-74
2022/09/19 00:25:08;;;;;;;;;;;;;;;;;;1038030;28;19913;-74
2022/09/19 00:25:38;;;;;;;;;;;;;;;;;;1038625;28;19917;-74
2022/09/19 00:26:08;;;;;;;;;;;;;;;;;;1038146;28;19917;-74
2022/09/19 00:26:39;;;;;;;;;;;;;;;;;;1037686;28;19922;-74
2022/09/19 00:27:10;;;;;;;;;;;;;;;;;;1037659;28;20008;-74
2022/09/19 00:27:40;;;;;;;;;;;;;;;;;;1039155;28;19916;-73
2022/09/19 00:28:10;;;;;;;;;;;;;;;;;;1037965;28;19920;-74
2022/09/19 00:28:42;;;;;;;;;;;;;;;;;;1037735;28;20383;-74
2022/09/19 00:29:13;;;;;;;;;;;;;;;;;;1038006;28;19917;-74
2022/09/19 00:29:43;;;;;;;;;;;;;;;;;;1038206;28;19917;-74
2022/09/19 00:30:13;;;;;;;;;;;;;;;;;;1038239;28;19917;-74
2022/09/19 00:30:44;;;;;;;;;;;;;;;;;;1038175;28;19920;-74
2022/09/19 00:31:17;;;;;;;;;;;;;;;;;;1037997;28;19913;-74
2022/09/19 00:31:47;;;;;;;;;;;;;;;;;;1038333;28;19920;-74
2022/09/19 00:32:17;;;;;;;;;;;;;;;;;;1037625;28;20327;-74
2022/09/19 00:32:48;;;;;;;;;;;;;;;;;;1037748;28;19920;-74
2022/09/19 00:33:21;;;;;;;;;;;;;;;;;;1038242;28;19983;-74
2022/09/19 00:33:52;;;;;;;;;;;;;;;;;;1037954;28;19913;-74
2022/09/19 00:34:23;;;;;;;;;;;;;;;;;;1037602;28;20013;-74
2022/09/19 00:34:55;;;;;;;;;;;;;;;;;;1037550;28;20008;-74
2022/09/19 00:35:26;;;;;;;;;;;;;;;;;;1037839;28;20432;-74
2022/09/19 00:35:57;;;;;;;;;;;;;;;;;;1037543;28;19920;-74
2022/09/19 00:36:27;;;;;;;;;;;;;;;;;;1037908;28;19977;-74
2022/09/19 00:36:58;;;;;;;;;;;;;;;;;;1038505;28;19917;-74
2022/09/19 00:37:28;;;;;;;;;;;;;;;;;;1037660;28;20365;-74
2022/09/19 00:37:59;;;;;;;;;;;;;;;;;;1036881;28;19914;-74
2022/09/19 00:38:29;;;;;;;;;;;;;;;;;;1041634;28;19998;-74
2022/09/19 00:38:59;;;;;;;;;;;;;;;;;;1038102;28;19918;-74
2022/09/19 00:39:30;;;;;;;;;;;;;;;;;;1038193;28;19925;-74
2022/09/19 00:40:00;;;;;;;;;;;;;;;;;;1038494;28;20381;-74
2022/09/19 00:40:30;;;;;;;;;;;;;;;;;;1038151;28;20384;-74
2022/09/19 00:41:01;;;;;;;;;;;;;;;;;;1037580;28;19963;-74
2022/09/19 00:41:31;;;;;;;;;;;;;;;;;;1037242;28;20375;-74
2022/09/19 00:42:01;;;;;;;;;;;;;;;;;;1037823;28;19913;-74
2022/09/19 00:42:33;;;;;;;;;;;;;;;;;;1037973;28;20416;-73
2022/09/19 00:43:03;;;;;;;;;;;;;;;;;;1037647;28;19913;-73
2022/09/19 00:43:34;;;;;;;;;;;;;;;;;;1037991;28;19952;-73
2022/09/19 00:44:04;;;;;;;;;;;;;;;;;;1038163;28;19971;-74
2022/09/19 00:44:35;;;;;;;;;;;;;;;;;;1037436;28;19968;-74
2022/09/19 00:45:05;;;;;;;;;;;;;;;;;;1037399;28;19912;-74
2022/09/19 00:45:35;;;;;;;;;;;;;;;;;;1038287;28;20365;-74
2022/09/19 00:46:06;;;;;;;;;;;;;;;;;;1038006;28;20000;-74
2022/09/19 00:46:36;;;;;;;;;;;;;;;;;;1038059;28;20319;-74
2022/09/19 00:47:06;;;;;;;;;;;;;;;;;;1037036;28;19914;-74
2022/09/19 00:47:36;;;;;;;;;;;;;;;;;;1038239;28;20014;-74
2022/09/19 00:48:07;;;;;;;;;;;;;;;;;;1037443;28;19921;-73
2022/09/19 00:48:41;;;;;;;;;;;;;;;;;;1038037;28;20000;-73
2022/09/19 00:49:13;;;;;;;;;;;;;;;;;;1038089;28;19913;-74
2022/09/19 00:49:43;;;;;;;;;;;;;;;;;;1038111;28;19918;-74
2022/09/19 00:50:14;;;;;;;;;;;;;;;;;;1036900;28;19913;-74
2022/09/19 00:50:44;;;;;;;;;;;;;;;;;;1037827;28;20269;-74
2022/09/19 00:51:14;;;;;;;;;;;;;;;;;;1037430;28;19921;-74
2022/09/19 00:51:46;;;;;;;;;;;;;;;;;;1037827;28;19914;-74
2022/09/19 00:52:16;;;;;;;;;;;;;;;;;;1037595;28;19922;-74
2022/09/19 00:52:46;;;;;;;;;;;;;;;;;;1038024;28;20012;-74
2022/09/19 00:53:17;;;;;;;;;;;;;;;;;;1040701;28;20376;-74
2022/09/19 00:53:48;;;;;;;;;;;;;;;;;;1034091;28;20014;-74
2022/09/19 00:54:18;;;;;;;;;;;;;;;;;;1034259;28;19913;-73
2022/09/19 00:54:48;;;;;;;;;;;;;;;;;;1035639;28;20352;-74
2022/09/19 00:55:19;;;;;;;;;;;;;;;;;;1038097;28;19921;-74
2022/09/19 00:55:49;;;;;;;;;;;;;;;;;;1038042;28;20026;-74
2022/09/19 00:56:19;;;;;;;;;;;;;;;;;;1038145;28;19914;-74
2022/09/19 00:56:49;;;;;;;;;;;;;;;;;;1037838;28;19977;-73
2022/09/19 00:57:20;;;;;;;;;;;;;;;;;;1038072;28;19914;-74
2022/09/19 00:57:50;;;;;;;;;;;;;;;;;;1038029;28;19913;-74
2022/09/19 00:58:20;;;;;;;;;;;;;;;;;;1037600;28;20004;-74
2022/09/19 00:58:51;;;;;;;;;;;;;;;;;;1037817;28;19937;-74
2022/09/19 00:59:23;;;;;;;;;;;;;;;;;;1037760;28;19919;-74
2022/09/19 00:59:53;;;;;;;;;;;;;;;;;;1033800;28;19921;-74
2022/09/19 01:00:23;;;;;;;;;;;;;;;;;;1037363;28;19925;-74
2022/09/19 01:00:53;;;;;;;;;;;;;;;;;;1042793;28;19917;-74
2022/09/19 01:01:24;;;;;;;;;;;;;;;;;;1039812;28;19936;-74
2022/09/19 01:01:55;;;;;;;;;;;;;;;;;;1033698;28;19913;-74
2022/09/19 01:02:28;;;;;;;;;;;;;;;;;;1038779;28;20352;-74
2022/09/19 01:02:58;;;;;;;;;;;;;;;;;;1037639;28;19917;-74
2022/09/19 01:03:29;;;;;;;;;;;;;;;;;;1037641;28;20043;-74
2022/09/19 01:04:01;;;;;;;;;;;;;;;;;;1037484;28;19968;-74
2022/09/19 01:04:35;;;;;;;;;;;;;;;;;;1037792;28;19952;-74
2022/09/19 01:05:07;;;;;;;;;;;;;;;;;;1035492;28;19913;-74
2022/09/19 01:05:41;;;;;;;;;;;;;;;;;;1036442;28;19952;-74
2022/09/19 01:06:11;;;;;;;;;;;;;;;;;;1036352;28;19913;-74
2022/09/19 01:06:42;;;;;;;;;;;;;;;;;;1034071;28;19917;-74
2022/09/19 01:07:13;;;;;;;;;;;;;;;;;;1034202;28;19914;-74
2022/09/19 01:07:44;;;;;;;;;;;;;;;;;;1033404;28;19917;-74
2022/09/19 01:08:15;;;;;;;;;;;;;;;;;;1036149;28;19913;-74
2022/09/19 01:08:45;;;;;;;;;;;;;;;;;;1038316;28;19946;-74
2022/09/19 01:09:16;;;;;;;;;;;;;;;;;;1036831;28;20261;-74
2022/09/19 01:09:47;;;;;;;;;;;;;;;;;;1037717;28;20004;-74
2022/09/19 01:10:18;;;;;;;;;;;;;;;;;;1033910;28;20005;-74
2022/09/19 01:10:48;;;;;;;;;;;;;;;;;;1034770;28;20532;-74
2022/09/19 01:11:19;;;;;;;;;;;;;;;;;;1033776;28;19937;-74
2022/09/19 01:11:50;;;;;;;;;;;;;;;;;;1034875;28;20274;-74
2022/09/19 01:12:20;;;;;;;;;;;;;;;;;;1033569;28;20003;-74
2022/09/19 01:12:51;;;;;;;;;;;;;;;;;;1033829;28;20373;-74
2022/09/19 01:13:22;;;;;;;;;;;;;;;;;;1034002;28;19913;-74
2022/09/19 01:13:54;;;;;;;;;;;;;;;;;;1033738;28;19913;-74
2022/09/19 01:14:25;;;;;;;;;;;;;;;;;;1034022;28;20377;-74
2022/09/19 01:14:56;;;;;;;;;;;;;;;;;;1033423;28;19914;-74
2022/09/19 01:15:28;;;;;;;;;;;;;;;;;;1034497;28;19949;-75
2022/09/19 01:15:58;;;;;;;;;;;;;;;;;;1037567;28;19913;-74
2022/09/19 01:16:34;;;;;;;;;;;;;;;;;;1037676;28;19964;-74
2022/09/19 01:17:05;;;;;;;;;;;;;;;;;;1034175;28;20075;-74
2022/09/19 01:17:46;;;;;;;;;;;;;;;;;;1036255;28;19913;-74
2022/09/19 01:18:20;;;;;;;;;;;;;;;;;;1037107;28;20291;-74
2022/09/19 01:18:53;;;;;;;;;;;;;;;;;;1035901;28;19917;-73
2022/09/19 01:19:23;;;;;;;;;;;;;;;;;;1033123;28;19914;-74
2022/09/19 01:19:54;;;;;;;;;;;;;;;;;;1033846;28;19925;-74
2022/09/19 01:20:24;;;;;;;;;;;;;;;;;;1033884;28;19913;-74
2022/09/19 01:20:54;;;;;;;;;;;;;;;;;;1035524;28;19980;-74
2022/09/19 01:21:40;;;;;;;;;;;;;;;;;;1035357;28;19913;-74
2022/09/19 01:22:10;;;;;;;;;;;;;;;;;;1038093;28;19932;-74
2022/09/19 01:22:43;;;;;;;;;;;;;;;;;;1036695;28;19910;-74
2022/09/19 01:23:15;;;;;;;;;;;;;;;;;;1032983;28;20636;-74
2022/09/19 01:23:45;;;;;;;;;;;;;;;;;;1033104;28;20411;-74
2022/09/19 01:24:19;;;;;;;;;;;;;;;;;;1033873;28;20477;-75
2022/09/19 01:24:50;;;;;;;;;;;;;;;;;;1036697;28;19979;-74
2022/09/19 01:25:20;;;;;;;;;;;;;;;;;;1037163;28;19944;-74
2022/09/19 01:25:51;;;;;;;;;;;;;;;;;;1038230;28;19921;-75
2022/09/19 01:26:21;;;;;;;;;;;;;;;;;;1035255;28;19917;-74
2022/09/19 01:26:53;;;;;;;;;;;;;;;;;;1038518;28;19962;-77
2022/09/19 01:27:23;;;;;;;;;;;;;;;;;;1038584;28;19917;-75
2022/09/19 01:27:54;;;;;;;;;;;;;;;;;;1035196;28;20008;-75
2022/09/19 01:28:24;;;;;;;;;;;;;;;;;;1034731;28;19964;-75
2022/09/19 01:28:54;;;;;;;;;;;;;;;;;;1033160;28;19962;-77
2022/09/19 01:29:25;;;;;;;;;;;;;;;;;;1034455;28;20000;-75
2022/09/19 01:29:55;;;;;;;;;;;;;;;;;;1035223;28;19917;-75
2022/09/19 01:30:25;;;;;;;;;;;;;;;;;;1033426;28;20047;-75
2022/09/19 01:31:16;;;;;;;;;;;;;;;;;;1033724;28;20224;-74
2022/09/19 01:31:46;;;;;;;;;;;;;;;;;;1032410;28;19922;-77
2022/09/19 01:32:18;;;;;;;;;;;;;;;;;;1034772;28;19913;-77
2022/09/19 01:32:51;;;;;;;;;;;;;;;;;;1034325;28;20460;-76
2022/09/19 01:33:22;;;;;;;;;;;;;;;;;;1029466;28;19914;-75
2022/09/19 01:33:53;;;;;;;;;;;;;;;;;;1029645;28;19918;-75
2022/09/19 01:34:24;;;;;;;;;;;;;;;;;;1030758;28;19921;-76
2022/09/19 01:34:55;;;;;;;;;;;;;;;;;;1027978;28;20622;-75
2022/09/19 01:35:25;;;;;;;;;;;;;;;;;;1029667;28;19913;-74
2022/09/19 01:35:57;;;;;;;;;;;;;;;;;;1032646;28;20386;-74
2022/09/19 01:36:31;;;;;;;;;;;;;;;;;;1033501;28;20349;-74
2022/09/19 01:37:02;;;;;;;;;;;;;;;;;;1034517;28;19922;-74
2022/09/19 01:37:34;;;;;;;;;;;;;;;;;;1034718;28;19947;-75
2022/09/19 01:38:05;;;;;;;;;;;;;;;;;;1034951;28;19985;-74
2022/09/19 01:38:39;;;;;;;;;;;;;;;;;;1035048;28;20428;-76
2022/09/19 01:39:10;;;;;;;;;;;;;;;;;;1031405;28;19917;-76
2022/09/19 01:39:41;;;;;;;;;;;;;;;;;;1030710;28;19928;-76
2022/09/19 01:40:12;;;;;;;;;;;;;;;;;;1026754;28;20009;-75
2022/09/19 01:40:43;;;;;;;;;;;;;;;;;;1032374;28;21524;-74
2022/09/19 01:41:13;;;;;;;;;;;;;;;;;;1033763;28;19918;-74
2022/09/19 01:41:44;;;;;;;;;;;;;;;;;;1032016;28;19924;-75
2022/09/19 01:42:14;;;;;;;;;;;;;;;;;;1041540;23;19964;-78
2022/09/19 01:42:45;;;;;;;;;;;;;;;;;;1038117;28;19983;-78
2022/09/19 01:43:16;;;;;;;;;;;;;;;;;;1039412;28;20505;-78
2022/09/19 01:43:46;;;;;;;;;;;;;;;;;;1043458;28;19951;-78
2022/09/19 01:44:16;;;;;;;;;;;;;;;;;;1042950;28;19917;-78
2022/09/19 01:44:47;;;;;;;;;;;;;;;;;;1045299;28;19971;-78
2022/09/19 01:45:17;;;;;;;;;;;;;;;;;;1042931;28;20020;-78
2022/09/19 01:45:48;;;;;;;;;;;;;;;;;;1044033;28;19916;-78
2022/09/19 01:46:18;;;;;;;;;;;;;;;;;;1042845;28;19917;-78
2022/09/19 01:46:48;;;;;;;;;;;;;;;;;;1043320;28;19923;-78
2022/09/19 01:47:19;;;;;;;;;;;;;;;;;;1045636;28;19963;-78
2022/09/19 01:47:49;;;;;;;;;;;;;;;;;;1047015;28;19921;-77
2022/09/19 01:48:19;;;;;;;;;;;;;;;;;;1046352;28;19921;-78
2022/09/19 01:48:51;;;;;;;;;;;;;;;;;;1040823;28;19924;-78
2022/09/19 01:49:21;;;;;;;;;;;;;;;;;;1041275;28;19917;-78
2022/09/19 01:49:52;;;;;;;;;;;;;;;;;;1042038;28;19928;-78
2022/09/19 01:50:25;;;;;;;;;;;;;;;;;;1041890;28;19943;-79
2022/09/19 01:50:55;;;;;;;;;;;;;;;;;;1041426;28;20462;-79
2022/09/19 01:51:26;;;;;;;;;;;;;;;;;;1041754;28;20000;-79
2022/09/19 01:51:57;;;;;;;;;;;;;;;;;;1041278;28;19913;-79
2022/09/19 01:52:30;;;;;;;;;;;;;;;;;;1040816;28;19913;-79
2022/09/19 01:53:01;;;;;;;;;;;;;;;;;;1041374;28;19925;-79
2022/09/19 01:53:32;;;;;;;;;;;;;;;;;;1041434;28;19913;-78
2022/09/19 01:54:02;;;;;;;;;;;;;;;;;;1041153;28;19939;-78
2022/09/19 01:54:33;;;;;;;;;;;;;;;;;;1036869;28;19914;-78
2022/09/19 01:55:03;;;;;;;;;;;;;;;;;;1035192;28;19925;-78
2022/09/19 01:55:35;;;;;;;;;;;;;;;;;;1037131;28;19992;-78
2022/09/19 01:56:05;;;;;;;;;;;;;;;;;;1037295;28;19996;-79
2022/09/19 01:56:36;;;;;;;;;;;;;;;;;;1039212;28;19917;-79
2022/09/19 01:57:07;;;;;;;;;;;;;;;;;;1042744;28;19917;-79
2022/09/19 01:57:37;;;;;;;;;;;;;;;;;;1043208;28;19924;-79
2022/09/19 01:58:08;;;;;;;;;;;;;;;;;;1054332;23;20262;-76
2022/09/19 01:58:40;;;;;;;;;;;;;;;;;;1034398;28;19925;-76
2022/09/19 01:59:11;;;;;;;;;;;;;;;;;;1031683;28;20440;-75
2022/09/19 01:59:42;;;;;;;;;;;;;;;;;;1034672;28;19917;-76
2022/09/19 02:00:13;;;;;;;;;;;;;;;;;;1035298;28;20281;-77
2022/09/19 02:00:44;;;;;;;;;;;;;;;;;;1038696;28;19964;-76
2022/09/19 02:01:14;;;;;;;;;;;;;;;;;;1037822;28;19913;-78
2022/09/19 02:01:45;;;;;;;;;;;;;;;;;;1033814;28;20016;-77
2022/09/19 02:02:17;;;;;;;;;;;;;;;;;;1035281;28;20003;-79
2022/09/19 02:02:48;;;;;;;;;;;;;;;;;;1034621;28;19917;-76
2022/09/19 02:03:22;;;;;;;;;;;;;;;;;;1033422;28;20008;-78
2022/09/19 02:03:56;;;;;;;;;;;;;;;;;;1042632;23;20254;-79
2022/09/19 02:04:28;;;;;;;;;;;;;;;;;;1033363;28;20408;-78
2022/09/19 02:05:04;;;;;;;;;;;;;;;;;;1032296;28;19917;-76
2022/09/19 02:05:35;;;;;;;;;;;;;;;;;;1036015;28;19960;-78
2022/09/19 02:06:07;;;;;;;;;;;;;;;;;;1033948;28;20281;-76
2022/09/19 02:06:45;;;;;;;;;;;;;;;;;;1031762;28;20036;-76
2022/09/19 02:07:20;;;;;;;;;;;;;;;;;;1030297;28;19913;-76
2022/09/19 02:07:51;;;;;;;;;;;;;;;;;;1029638;28;20813;-77
2022/09/19 02:08:23;;;;;;;;;;;;;;;;;;1029008;28;19929;-78
2022/09/19 02:08:55;;;;;;;;;;;;;;;;;;1026231;28;20096;-76
2022/09/19 02:09:26;;;;;;;;;;;;;;;;;;1029264;28;19918;-76
2022/09/19 02:09:56;;;;;;;;;;;;;;;;;;1030752;28;19937;-75
2022/09/19 02:10:30;;;;;;;;;;;;;;;;;;1030940;28;19925;-76
2022/09/19 02:11:03;;;;;;;;;;;;;;;;;;1030967;28;20043;-75
2022/09/19 02:11:36;;;;;;;;;;;;;;;;;;1028919;28;19924;-75
2022/09/19 02:12:07;;;;;;;;;;;;;;;;;;1033138;28;19972;-76
2022/09/19 02:12:42;;;;;;;;;;;;;;;;;;1033678;28;20361;-76
2022/09/19 02:13:13;;;;;;;;;;;;;;;;;;1029942;28;19910;-80
2022/09/19 02:13:45;;;;;;;;;;;;;;;;;;1026649;28;20005;-78
2022/09/19 02:14:21;;;;;;;;;;;;;;;;;;1025794;28;20434;-78
2022/09/19 02:14:57;;;;;;;;;;;;;;;;;;1027525;28;19985;-76
2022/09/19 02:15:29;;;;;;;;;;;;;;;;;;1031544;28;19925;-77
2022/09/19 02:16:09;;;;;;;;;;;;;;;;;;1034839;28;19979;-76
2022/09/19 02:16:45;;;;;;;;;;;;;;;;;;1034946;28;19980;-74
2022/09/19 02:17:16;;;;;;;;;;;;;;;;;;1035437;28;19913;-79
2022/09/19 02:17:51;;;;;;;;;;;;;;;;;;1037089;28;19917;-77
2022/09/19 02:18:24;;;;;;;;;;;;;;;;;;1033812;28;20437;-76
2022/09/19 02:18:54;;;;;;;;;;;;;;;;;;1038746;28;19996;-76
2022/09/19 02:19:35;;;;;;;;;;;;;;;;;;;;;
2022/09/19 02:20:07;;;;;;;;;;;;;;;;;;1032835;28;20433;-78
2022/09/19 02:20:37;;;;;;;;;;;;;;;;;;1034980;28;20455;-79
2022/09/19 02:21:10;;;;;;;;;;;;;;;;;;1033226;28;19922;-75
2022/09/19 02:21:41;;;;;;;;;;;;;;;;;;1035017;28;20506;-77
2022/09/19 02:22:14;;;;;;;;;;;;;;;;;;1036053;28;20004;-77
2022/09/19 02:22:47;;;;;;;;;;;;;;;;;;1036377;28;19917;-79
2022/09/19 02:23:17;;;;;;;;;;;;;;;;;;1033263;28;19914;-76
2022/09/19 02:23:48;;;;;;;;;;;;;;;;;;1030650;28;20534;-77
2022/09/19 02:24:19;;;;;;;;;;;;;;;;;;1031630;28;19953;-79
2022/09/19 02:24:50;;;;;;;;;;;;;;;;;;1030774;28;19929;-77
2022/09/19 02:25:21;;;;;;;;;;;;;;;;;;1036690;28;19917;-76
2022/09/19 02:25:54;;;;;;;;;;;;;;;;;;1042956;28;19917;-77
2022/09/19 02:26:26;;;;;;;;;;;;;;;;;;1035866;28;19917;-76
2022/09/19 02:27:00;;;;;;;;;;;;;;;;;;1034242;28;20024;-77
2022/09/19 02:27:32;;;;;;;;;;;;;;;;;;1036197;28;20000;-77
2022/09/19 02:28:03;;;;;;;;;;;;;;;;;;1035423;28;20282;-79
2022/09/19 02:28:34;;;;;;;;;;;;;;;;;;1035046;28;20394;-79
2022/09/19 02:29:04;;;;;;;;;;;;;;;;;;1033843;28;19925;-79
2022/09/19 02:29:35;;;;;;;;;;;;;;;;;;1031639;28;19921;-78
2022/09/19 02:30:08;;;;;;;;;;;;;;;;;;1032688;28;19914;-77
2022/09/19 02:30:38;;;;;;;;;;;;;;;;;;1031280;28;19969;-80
2022/09/19 02:31:09;;;;;;;;;;;;;;;;;;1033365;28;20390;-77
2022/09/19 02:31:41;;;;;;;;;;;;;;;;;;1033351;28;19914;-77
2022/09/19 02:32:11;;;;;;;;;;;;;;;;;;1034890;28;19920;-78
2022/09/19 02:32:47;;;;;;;;;;;;;;;;;;1038246;28;19916;-76
2022/09/19 02:33:18;;;;;;;;;;;;;;;;;;1036375;28;20050;-76
2022/09/19 02:33:49;;;;;;;;;;;;;;;;;;1036911;28;19917;-76
2022/09/19 02:34:20;;;;;;;;;;;;;;;;;;1033710;28;19922;-77
2022/09/19 02:34:51;;;;;;;;;;;;;;;;;;1034861;28;19925;-77
2022/09/19 02:35:22;;;;;;;;;;;;;;;;;;1035402;28;20012;-78
2022/09/19 02:35:53;;;;;;;;;;;;;;;;;;1037690;28;19917;-77
2022/09/19 02:36:24;;;;;;;;;;;;;;;;;;1042674;28;20043;-77
2022/09/19 02:36:57;;;;;;;;;;;;;;;;;;1036788;28;19917;-76
2022/09/19 02:37:30;;;;;;;;;;;;;;;;;;1037054;28;19914;-76
2022/09/19 02:38:06;;;;;;;;;;;;;;;;;;1034611;28;19973;-77
2022/09/19 02:38:37;;;;;;;;;;;;;;;;;;1036495;28;19920;-76
2022/09/19 02:39:08;;;;;;;;;;;;;;;;;;1035313;28;20384;-76
2022/09/19 02:39:39;;;;;;;;;;;;;;;;;;1032437;28;19914;-76
2022/09/19 02:40:11;;;;;;;;;;;;;;;;;;1031200;28;19921;-76
2022/09/19 02:40:43;;;;;;;;;;;;;;;;;;1031848;28;19913;-76
2022/09/19 02:41:17;;;;;;;;;;;;;;;;;;1033137;28;19952;-75
2022/09/19 02:41:52;;;;;;;;;;;;;;;;;;1030583;28;20281;-75
2022/09/19 02:42:22;;;;;;;;;;;;;;;;;;1032501;28;19924;-77
2022/09/19 02:42:53;;;;;;;;;;;;;;;;;;1034338;28;19921;-76
2022/09/19 02:43:23;;;;;;;;;;;;;;;;;;1034843;28;20024;-76
2022/09/19 02:43:55;;;;;;;;;;;;;;;;;;1035077;28;20289;-75
2022/09/19 02:44:25;;;;;;;;;;;;;;;;;;1038080;28;19917;-76
2022/09/19 02:44:56;;;;;;;;;;;;;;;;;;1035152;28;20789;-74
2022/09/19 02:45:29;;;;;;;;;;;;;;;;;;1039265;28;19956;-76
2022/09/19 02:46:00;;;;;;;;;;;;;;;;;;1039462;28;19913;-75
2022/09/19 02:46:30;;;;;;;;;;;;;;;;;;1039904;28;20674;-76
2022/09/19 02:47:02;;;;;;;;;;;;;;;;;;1039096;28;20416;-75
2022/09/19 02:47:32;;;;;;;;;;;;;;;;;;1036521;28;19952;-75
2022/09/19 02:48:03;;;;;;;;;;;;;;;;;;1032743;28;19913;-75
2022/09/19 02:48:34;;;;;;;;;;;;;;;;;;1030656;28;19925;-75
2022/09/19 02:49:04;;;;;;;;;;;;;;;;;;1027282;28;19914;-75
2022/09/19 02:49:37;;;;;;;;;;;;;;;;;;1033527;28;19917;-75
2022/09/19 02:50:08;;;;;;;;;;;;;;;;;;1029502;28;20314;-76
2022/09/19 02:50:42;;;;;;;;;;;;;;;;;;1031329;28;19928;-75
2022/09/19 02:51:12;;;;;;;;;;;;;;;;;;1028777;28;19945;-76
2022/09/19 02:51:43;;;;;;;;;;;;;;;;;;1031051;28;19948;-78
2022/09/19 02:52:15;;;;;;;;;;;;;;;;;;1031187;28;19965;-76
2022/09/19 02:52:46;;;;;;;;;;;;;;;;;;1033355;28;20506;-75
2022/09/19 02:53:16;;;;;;;;;;;;;;;;;;1034175;28;19944;-75
2022/09/19 02:53:46;;;;;;;;;;;;;;;;;;1032381;28;20135;-78
2022/09/19 02:54:17;;;;;;;;;;;;;;;;;;1037101;28;20008;-78
2022/09/19 02:54:47;;;;;;;;;;;;;;;;;;1034566;28;19968;-79
2022/09/19 02:55:18;;;;;;;;;;;;;;;;;;1035213;28;19939;-76
2022/09/19 02:55:49;;;;;;;;;;;;;;;;;;1034256;28;19971;-77
2022/09/19 02:56:20;;;;;;;;;;;;;;;;;;1033390;28;19914;-75
2022/09/19 02:56:50;;;;;;;;;;;;;;;;;;1033509;28;19913;-77
2022/09/19 02:57:21;;;;;;;;;;;;;;;;;;1035202;28;19976;-81
2022/09/19 02:57:53;;;;;;;;;;;;;;;;;;1032983;28;20496;-79
2022/09/19 02:58:23;;;;;;;;;;;;;;;;;;1034912;28;20488;-77
2022/09/19 02:58:57;;;;;;;;;;;;;;;;;;1033787;28;20492;-77
2022/09/19 02:59:28;;;;;;;;;;;;;;;;;;1038761;28;19917;-79
2022/09/19 02:59:58;;;;;;;;;;;;;;;;;;1040362;28;20405;-78
2022/09/19 03:00:29;;;;;;;;;;;;;;;;;;1038741;28;20000;-75
2022/09/19 03:01:01;;;;;;;;;;;;;;;;;;1038193;28;19925;-79
2022/09/19 03:01:31;;;;;;;;;;;;;;;;;;1031413;28;19997;-76
2022/09/19 03:02:02;;;;;;;;;;;;;;;;;;1029222;28;20362;-78
2022/09/19 03:02:32;;;;;;;;;;;;;;;;;;1032525;28;19922;-77
2022/09/19 03:04:11;;;;;;;;;;;;;;;;;;1031043;28;19921;-76
2022/09/19 03:04:15;;;;;;;;;;;;;;;;;;1034305;28;19924;-77
2022/09/19 03:04:47;;;;;;;;;;;;;;;;;;1036070;28;19945;-78
2022/09/19 03:05:19;;;;;;;;;;;;;;;;;;1034360;28;20379;-75
2022/09/19 03:05:50;;;;;;;;;;;;;;;;;;1030888;28;20459;-78
2022/09/19 03:06:21;;;;;;;;;;;;;;;;;;1031231;28;20529;-78
2022/09/19 03:06:51;;;;;;;;;;;;;;;;;;1031918;28;19960;-79
2022/09/19 03:07:25;;;;;;;;;;;;;;;;;;1037159;28;19914;-77
2022/09/19 03:07:56;;;;;;;;;;;;;;;;;;1036637;28;20008;-78
2022/09/19 03:08:26;;;;;;;;;;;;;;;;;;1035244;28;20342;-77
2022/09/19 03:08:57;;;;;;;;;;;;;;;;;;1036793;28;19917;-77
2022/09/19 03:09:27;;;;;;;;;;;;;;;;;;1031761;28;20060;-77
2022/09/19 03:09:58;;;;;;;;;;;;;;;;;;1035952;28;19979;-77
2022/09/19 03:10:29;;;;;;;;;;;;;;;;;;1037009;28;19972;-77
2022/09/19 03:11:00;;;;;;;;;;;;;;;;;;1036469;28;19966;-78
2022/09/19 03:11:32;;;;;;;;;;;;;;;;;;1041073;23;20004;-79
2022/09/19 03:12:03;;;;;;;;;;;;;;;;;;1043407;23;19933;-78
2022/09/19 03:12:35;;;;;;;;;;;;;;;;;;1038780;28;19917;-78
2022/09/19 03:13:06;;;;;;;;;;;;;;;;;;1036665;28;19917;-79
2022/09/19 03:13:40;;;;;;;;;;;;;;;;;;1033367;28;20441;-80
2022/09/19 03:14:10;;;;;;;;;;;;;;;;;;1036341;28;19947;-78
2022/09/19 03:14:41;;;;;;;;;;;;;;;;;;1035924;28;20404;-77
2022/09/19 03:15:11;;;;;;;;;;;;;;;;;;1037798;28;20114;-79
2022/09/19 03:15:42;;;;;;;;;;;;;;;;;;1034212;28;19924;-79
2022/09/19 03:16:14;;;;;;;;;;;;;;;;;;1033155;28;19917;-78
2022/09/19 03:16:47;;;;;;;;;;;;;;;;;;1038467;28;19917;-78
2022/09/19 03:17:18;;;;;;;;;;;;;;;;;;1032908;28;19943;-78
2022/09/19 03:17:49;;;;;;;;;;;;;;;;;;1036322;28;19924;-79
2022/09/19 03:18:22;;;;;;;;;;;;;;;;;;1037451;28;19932;-78
2022/09/19 03:18:54;;;;;;;;;;;;;;;;;;1033960;28;19917;-76
2022/09/19 03:19:25;;;;;;;;;;;;;;;;;;1038700;28;19913;-77
2022/09/19 03:19:55;;;;;;;;;;;;;;;;;;1037601;28;19917;-78
2022/09/19 03:20:26;;;;;;;;;;;;;;;;;;1031913;28;19921;-79
2022/09/19 03:20:58;;;;;;;;;;;;;;;;;;1034324;28;19920;-77
2022/09/19 03:21:29;;;;;;;;;;;;;;;;;;1036652;28;19918;-78
2022/09/19 03:21:59;;;;;;;;;;;;;;;;;;1039600;28;19913;-77
2022/09/19 03:22:35;;;;;;;;;;;;;;;;;;1036001;28;19921;-78
2022/09/19 03:23:07;;;;;;;;;;;;;;;;;;1038171;23;19944;-78
2022/09/19 03:23:38;;;;;;;;;;;;;;;;;;1035426;28;19972;-77
2022/09/19 03:24:09;;;;;;;;;;;;;;;;;;1037244;28;20046;-79
2022/09/19 03:24:39;;;;;;;;;;;;;;;;;;1038363;28;20333;-78
2022/09/19 03:25:10;;;;;;;;;;;;;;;;;;1043523;28;19967;-79
2022/09/19 03:25:40;;;;;;;;;;;;;;;;;;1042497;28;19928;-79
2022/09/19 03:26:11;;;;;;;;;;;;;;;;;;1039371;28;19919;-77
2022/09/19 03:26:42;;;;;;;;;;;;;;;;;;1039402;28;19913;-77
2022/09/19 03:27:12;;;;;;;;;;;;;;;;;;1040275;28;19917;-77
2022/09/19 03:27:44;;;;;;;;;;;;;;;;;;1040714;28;19944;-79
2022/09/19 03:28:19;;;;;;;;;;;;;;;;;;1035578;28;20279;-79
2022/09/19 03:28:50;;;;;;;;;;;;;;;;;;1034975;28;19976;-78
2022/09/19 03:29:20;;;;;;;;;;;;;;;;;;1034557;28;19924;-80
2022/09/19 03:29:51;;;;;;;;;;;;;;;;;;1033434;28;20585;-77
2022/09/19 03:30:21;;;;;;;;;;;;;;;;;;1029870;28;20378;-77
2022/09/19 03:30:56;;;;;;;;;;;;;;;;;;1030040;28;20381;-78
2022/09/19 03:31:27;;;;;;;;;;;;;;;;;;1030637;28;19980;-77
2022/09/19 03:32:00;;;;;;;;;;;;;;;;;;1029260;28;20410;-77
2022/09/19 03:32:30;;;;;;;;;;;;;;;;;;1033344;28;19968;-77
2022/09/19 03:33:01;;;;;;;;;;;;;;;;;;1031297;28;19975;-76
2022/09/19 03:33:31;;;;;;;;;;;;;;;;;;1026344;28;19922;-76
2022/09/19 03:34:02;;;;;;;;;;;;;;;;;;1024272;28;20158;-77
2022/09/19 03:34:33;;;;;;;;;;;;;;;;;;1020882;28;19910;-77
2022/09/19 03:35:04;;;;;;;;;;;;;;;;;;1028148;28;19918;-76
2022/09/19 03:35:36;;;;;;;;;;;;;;;;;;1029071;28;19925;-76
2022/09/19 03:36:07;;;;;;;;;;;;;;;;;;1028812;28;20721;-77
2022/09/19 03:36:40;;;;;;;;;;;;;;;;;;1031429;28;20688;-76